sensor_id;sensor_type;location;lat;lon;timestamp;temperature;humidity
6270;DHT22;3168;51.684;6.954;2022-10-16T00:01:09;12.90;99.90
6270;DHT22;3168;51.684;6.954;2022-10-16T00:03:34;12.80;99.90
6270;DHT22;3168;51.684;6.954;2022-10-16T00:06:00;12.90;99.90
6270;DHT22;3168;51.684;6.954;2022-10-16T00:08:26;12.90;99.90
6270;DHT22;3168;51.684;6.954;2022-10-16T00:10:52;12.90;99.90
6270;DHT22;3168;51.684;6.954;2022-10-16T00:13:18;12.80;99.90
6270;DHT22;3168;51.684;6.954;2022-10-16T00:15:43;12.80;99.90
6270;DHT22;3168;51.684;6.954;2022-10-16T00:18:09;12.80;99.90
6270;DHT22;3168;51.684;6.954;2022-10-16T00:20:35;12.80;99.90
6270;DHT22;3168;51.684;6.954;2022-10-16T00:23:01;12.80;99.90
6270;DHT22;3168;51.684;6.954;2022-10-16T00:25:27;12.70;99.90
6270;DHT22;3168;51.684;6.954;2022-10-16T00:27:52;12.70;99.90
6270;DHT22;3168;51.684;6.954;2022-10-16T00:30:18;12.70;99.90
6270;DHT22;3168;51.684;6.954;2022-10-16T00:32:45;12.70;99.90
6270;DHT22;3168;51.684;6.954;2022-10-16T00:35:11;12.70;99.90
6270;DHT22;3168;51.684;6.954;2022-10-16T00:37:36;12.70;99.90
6270;DHT22;3168;51.684;6.954;2022-10-16T00:40:02;12.70;99.90
6270;DHT22;3168;51.684;6.954;2022-10-16T00:42:28;12.70;99.90
6270;DHT22;3168;51.684;6.954;2022-10-16T00:44:55;12.70;99.90
6270;DHT22;3168;51.684;6.954;2022-10-16T00:47:26;12.70;99.90
6270;DHT22;3168;51.684;6.954;2022-10-16T00:49:51;12.70;99.90
6270;DHT22;3168;51.684;6.954;2022-10-16T00:52:17;12.70;99.90
6270;DHT22;3168;51.684;6.954;2022-10-16T00:54:43;12.60;99.90
6270;DHT22;3168;51.684;6.954;2022-10-16T00:57:09;12.60;99.90
6270;DHT22;3168;51.684;6.954;2022-10-16T00:59:36;12.60;99.90
6270;DHT22;3168;51.684;6.954;2022-10-16T01:02:01;12.60;99.90
6270;DHT22;3168;51.684;6.954;2022-10-16T01:04:26;12.50;99.90
6270;DHT22;3168;51.684;6.954;2022-10-16T01:07:06;12.60;99.90
6270;DHT22;3168;51.684;6.954;2022-10-16T01:09:50;12.60;99.90
6270;DHT22;3168;51.684;6.954;2022-10-16T01:12:18;12.70;99.90
6270;DHT22;3168;51.684;6.954;2022-10-16T01:14:50;12.70;99.90
6270;DHT22;3168;51.684;6.954;2022-10-16T01:17:18;12.70;99.90
6270;DHT22;3168;51.684;6.954;2022-10-16T01:20:09;12.60;99.90
6270;DHT22;3168;51.684;6.954;2022-10-16T01:22:43;12.60;99.90
6270;DHT22;3168;51.684;6.954;2022-10-16T01:25:05;12.60;99.90
6270;DHT22;3168;51.684;6.954;2022-10-16T01:27:32;12.50;99.90
6270;DHT22;3168;51.684;6.954;2022-10-16T01:30:10;12.50;99.90
6270;DHT22;3168;51.684;6.954;2022-10-16T01:32:37;12.50;99.90
6270;DHT22;3168;51.684;6.954;2022-10-16T01:35:06;12.50;99.90
6270;DHT22;3168;51.684;6.954;2022-10-16T01:37:35;12.40;99.90
6270;DHT22;3168;51.684;6.954;2022-10-16T01:40:00;12.40;99.90
6270;DHT22;3168;51.684;6.954;2022-10-16T01:42:28;12.30;99.90
6270;DHT22;3168;51.684;6.954;2022-10-16T01:44:52;12.40;99.90
6270;DHT22;3168;51.684;6.954;2022-10-16T01:47:19;12.40;99.90
6270;DHT22;3168;51.684;6.954;2022-10-16T01:49:44;12.40;99.90
6270;DHT22;3168;51.684;6.954;2022-10-16T01:52:11;12.40;99.90
6270;DHT22;3168;51.684;6.954;2022-10-16T01:54:36;12.30;99.90
6270;DHT22;3168;51.684;6.954;2022-10-16T01:57:03;12.40;99.90
6270;DHT22;3168;51.684;6.954;2022-10-16T01:59:28;12.30;99.90
6270;DHT22;3168;51.684;6.954;2022-10-16T02:01:54;12.20;99.90
6270;DHT22;3168;51.684;6.954;2022-10-16T02:04:23;12.20;99.90
6270;DHT22;3168;51.684;6.954;2022-10-16T02:06:47;12.30;99.90
6270;DHT22;3168;51.684;6.954;2022-10-16T02:09:13;12.30;99.90
6270;DHT22;3168;51.684;6.954;2022-10-16T02:11:39;12.30;99.90
6270;DHT22;3168;51.684;6.954;2022-10-16T02:14:05;12.40;99.90
6270;DHT22;3168;51.684;6.954;2022-10-16T02:16:38;12.40;99.90
6270;DHT22;3168;51.684;6.954;2022-10-16T02:19:02;12.50;99.90
6270;DHT22;3168;51.684;6.954;2022-10-16T02:21:29;12.60;99.90
6270;DHT22;3168;51.684;6.954;2022-10-16T02:25:17;12.50;99.90
6270;DHT22;3168;51.684;6.954;2022-10-16T02:26:52;12.50;99.90
6270;DHT22;3168;51.684;6.954;2022-10-16T02:29:19;12.60;99.90
6270;DHT22;3168;51.684;6.954;2022-10-16T02:31:44;12.60;99.90
6270;DHT22;3168;51.684;6.954;2022-10-16T02:34:09;12.60;99.90
6270;DHT22;3168;51.684;6.954;2022-10-16T02:36:35;12.60;99.90
6270;DHT22;3168;51.684;6.954;2022-10-16T02:39:01;12.70;99.90
6270;DHT22;3168;51.684;6.954;2022-10-16T02:41:26;12.70;99.90
6270;DHT22;3168;51.684;6.954;2022-10-16T02:43:52;12.70;99.90
6270;DHT22;3168;51.684;6.954;2022-10-16T02:46:18;12.70;99.90
6270;DHT22;3168;51.684;6.954;2022-10-16T02:48:44;12.70;99.90
6270;DHT22;3168;51.684;6.954;2022-10-16T02:51:10;12.60;99.90
6270;DHT22;3168;51.684;6.954;2022-10-16T02:53:36;12.60;99.90
6270;DHT22;3168;51.684;6.954;2022-10-16T02:56:02;12.50;99.90
6270;DHT22;3168;51.684;6.954;2022-10-16T02:58:29;12.50;99.90
6270;DHT22;3168;51.684;6.954;2022-10-16T03:00:55;12.40;99.90
6270;DHT22;3168;51.684;6.954;2022-10-16T03:03:20;12.40;99.90
6270;DHT22;3168;51.684;6.954;2022-10-16T03:05:47;12.30;99.90
6270;DHT22;3168;51.684;6.954;2022-10-16T03:08:13;12.30;99.90
6270;DHT22;3168;51.684;6.954;2022-10-16T03:10:39;12.30;99.90
6270;DHT22;3168;51.684;6.954;2022-10-16T03:13:05;12.30;99.90
6270;DHT22;3168;51.684;6.954;2022-10-16T03:15:31;12.30;99.90
6270;DHT22;3168;51.684;6.954;2022-10-16T03:17:58;12.30;99.90
6270;DHT22;3168;51.684;6.954;2022-10-16T03:20:23;12.30;99.90
6270;DHT22;3168;51.684;6.954;2022-10-16T03:22:49;12.30;99.90
6270;DHT22;3168;51.684;6.954;2022-10-16T03:25:15;12.20;99.90
6270;DHT22;3168;51.684;6.954;2022-10-16T03:27:41;12.30;99.90
6270;DHT22;3168;51.684;6.954;2022-10-16T03:30:08;12.30;99.90
6270;DHT22;3168;51.684;6.954;2022-10-16T03:32:34;12.40;99.90
6270;DHT22;3168;51.684;6.954;2022-10-16T03:35:00;12.40;99.90
6270;DHT22;3168;51.684;6.954;2022-10-16T03:37:26;12.40;99.90
6270;DHT22;3168;51.684;6.954;2022-10-16T03:39:53;12.40;99.90
6270;DHT22;3168;51.684;6.954;2022-10-16T03:42:19;12.40;99.90
6270;DHT22;3168;51.684;6.954;2022-10-16T03:44:44;12.40;99.90
6270;DHT22;3168;51.684;6.954;2022-10-16T03:47:10;12.40;99.90
6270;DHT22;3168;51.684;6.954;2022-10-16T03:49:36;12.40;99.90
6270;DHT22;3168;51.684;6.954;2022-10-16T03:52:02;12.40;99.90
6270;DHT22;3168;51.684;6.954;2022-10-16T03:54:28;12.40;99.90
6270;DHT22;3168;51.684;6.954;2022-10-16T03:56:54;12.50;99.90
6270;DHT22;3168;51.684;6.954;2022-10-16T03:59:20;12.40;99.90
6270;DHT22;3168;51.684;6.954;2022-10-16T04:01:46;12.40;99.90
6270;DHT22;3168;51.684;6.954;2022-10-16T04:04:12;12.50;99.90
6270;DHT22;3168;51.684;6.954;2022-10-16T04:06:37;12.50;99.90
6270;DHT22;3168;51.684;6.954;2022-10-16T04:09:03;12.50;99.90
6270;DHT22;3168;51.684;6.954;2022-10-16T04:11:29;12.50;99.90
6270;DHT22;3168;51.684;6.954;2022-10-16T04:13:55;12.50;99.90
6270;DHT22;3168;51.684;6.954;2022-10-16T04:16:21;12.60;99.90
6270;DHT22;3168;51.684;6.954;2022-10-16T04:18:46;12.60;99.90
6270;DHT22;3168;51.684;6.954;2022-10-16T04:21:12;12.60;99.90
6270;DHT22;3168;51.684;6.954;2022-10-16T04:23:38;12.60;99.90
6270;DHT22;3168;51.684;6.954;2022-10-16T04:26:04;12.70;99.90
6270;DHT22;3168;51.684;6.954;2022-10-16T04:28:30;12.70;99.90
6270;DHT22;3168;51.684;6.954;2022-10-16T04:30:56;12.70;99.90
6270;DHT22;3168;51.684;6.954;2022-10-16T04:33:21;12.80;99.90
6270;DHT22;3168;51.684;6.954;2022-10-16T04:35:47;12.80;99.90
6270;DHT22;3168;51.684;6.954;2022-10-16T04:38:13;12.70;99.90
6270;DHT22;3168;51.684;6.954;2022-10-16T04:40:39;12.70;99.90
6270;DHT22;3168;51.684;6.954;2022-10-16T04:43:05;12.70;99.90
6270;DHT22;3168;51.684;6.954;2022-10-16T04:45:30;12.80;99.90
6270;DHT22;3168;51.684;6.954;2022-10-16T04:47:57;12.70;99.90
6270;DHT22;3168;51.684;6.954;2022-10-16T04:50:22;12.80;99.90
6270;DHT22;3168;51.684;6.954;2022-10-16T04:52:48;12.80;99.90
6270;DHT22;3168;51.684;6.954;2022-10-16T04:55:14;12.80;99.90
6270;DHT22;3168;51.684;6.954;2022-10-16T04:57:40;12.70;99.90
6270;DHT22;3168;51.684;6.954;2022-10-16T05:00:06;12.70;99.90
6270;DHT22;3168;51.684;6.954;2022-10-16T05:02:32;12.70;99.90
6270;DHT22;3168;51.684;6.954;2022-10-16T05:04:58;12.70;99.90
6270;DHT22;3168;51.684;6.954;2022-10-16T05:07:24;12.70;99.90
6270;DHT22;3168;51.684;6.954;2022-10-16T05:09:50;12.70;99.90
6270;DHT22;3168;51.684;6.954;2022-10-16T05:12:16;12.60;99.90
6270;DHT22;3168;51.684;6.954;2022-10-16T05:14:42;12.60;99.90
6270;DHT22;3168;51.684;6.954;2022-10-16T05:17:07;12.60;99.90
6270;DHT22;3168;51.684;6.954;2022-10-16T05:19:33;12.70;99.90
6270;DHT22;3168;51.684;6.954;2022-10-16T05:21:59;12.70;99.90
6270;DHT22;3168;51.684;6.954;2022-10-16T05:24:25;12.70;99.90
6270;DHT22;3168;51.684;6.954;2022-10-16T05:26:51;12.70;99.90
6270;DHT22;3168;51.684;6.954;2022-10-16T05:29:17;12.70;99.90
6270;DHT22;3168;51.684;6.954;2022-10-16T05:31:42;12.70;99.90
6270;DHT22;3168;51.684;6.954;2022-10-16T05:34:08;12.70;99.90
6270;DHT22;3168;51.684;6.954;2022-10-16T05:36:34;12.70;99.90
6270;DHT22;3168;51.684;6.954;2022-10-16T05:39:00;12.70;99.90
6270;DHT22;3168;51.684;6.954;2022-10-16T05:41:26;12.70;99.90
6270;DHT22;3168;51.684;6.954;2022-10-16T05:43:52;12.70;99.90
6270;DHT22;3168;51.684;6.954;2022-10-16T05:46:18;12.70;99.90
6270;DHT22;3168;51.684;6.954;2022-10-16T05:48:44;12.60;99.90
6270;DHT22;3168;51.684;6.954;2022-10-16T05:51:10;12.60;99.90
6270;DHT22;3168;51.684;6.954;2022-10-16T05:53:36;12.60;99.90
6270;DHT22;3168;51.684;6.954;2022-10-16T05:56:02;12.60;99.90
6270;DHT22;3168;51.684;6.954;2022-10-16T05:58:29;12.60;99.90
6270;DHT22;3168;51.684;6.954;2022-10-16T06:00:56;12.60;99.90
6270;DHT22;3168;51.684;6.954;2022-10-16T06:03:21;12.50;99.90
6270;DHT22;3168;51.684;6.954;2022-10-16T06:05:47;12.50;99.90
6270;DHT22;3168;51.684;6.954;2022-10-16T06:08:12;12.50;99.90
6270;DHT22;3168;51.684;6.954;2022-10-16T06:10:38;12.50;99.90
6270;DHT22;3168;51.684;6.954;2022-10-16T06:13:04;12.50;99.90
6270;DHT22;3168;51.684;6.954;2022-10-16T06:15:30;12.50;99.90
6270;DHT22;3168;51.684;6.954;2022-10-16T06:17:56;12.50;99.90
6270;DHT22;3168;51.684;6.954;2022-10-16T06:20:22;12.50;99.90
6270;DHT22;3168;51.684;6.954;2022-10-16T06:22:47;12.50;99.90
6270;DHT22;3168;51.684;6.954;2022-10-16T06:25:13;12.60;99.90
6270;DHT22;3168;51.684;6.954;2022-10-16T06:27:39;12.50;99.90
6270;DHT22;3168;51.684;6.954;2022-10-16T06:30:06;12.50;99.90
6270;DHT22;3168;51.684;6.954;2022-10-16T06:32:32;12.50;99.90
6270;DHT22;3168;51.684;6.954;2022-10-16T06:34:57;12.50;99.90
6270;DHT22;3168;51.684;6.954;2022-10-16T06:37:23;12.50;99.90
6270;DHT22;3168;51.684;6.954;2022-10-16T06:39:49;12.50;99.90
6270;DHT22;3168;51.684;6.954;2022-10-16T06:42:15;12.50;99.90
6270;DHT22;3168;51.684;6.954;2022-10-16T06:44:41;12.60;99.90
6270;DHT22;3168;51.684;6.954;2022-10-16T06:47:06;12.60;99.90
6270;DHT22;3168;51.684;6.954;2022-10-16T06:49:32;12.50;99.90
6270;DHT22;3168;51.684;6.954;2022-10-16T06:51:59;12.50;99.90
6270;DHT22;3168;51.684;6.954;2022-10-16T06:54:25;12.60;99.90
6270;DHT22;3168;51.684;6.954;2022-10-16T06:56:51;12.50;99.90
6270;DHT22;3168;51.684;6.954;2022-10-16T06:59:16;12.60;99.90
6270;DHT22;3168;51.684;6.954;2022-10-16T07:01:43;12.60;99.90
6270;DHT22;3168;51.684;6.954;2022-10-16T07:04:08;12.60;99.90
6270;DHT22;3168;51.684;6.954;2022-10-16T07:06:34;12.60;99.90
6270;DHT22;3168;51.684;6.954;2022-10-16T07:09:01;12.60;99.90
6270;DHT22;3168;51.684;6.954;2022-10-16T07:11:26;12.70;99.90
6270;DHT22;3168;51.684;6.954;2022-10-16T07:13:52;12.60;99.90
6270;DHT22;3168;51.684;6.954;2022-10-16T07:16:19;12.60;99.90
6270;DHT22;3168;51.684;6.954;2022-10-16T07:18:44;12.60;99.90
6270;DHT22;3168;51.684;6.954;2022-10-16T07:21:10;12.70;99.90
6270;DHT22;3168;51.684;6.954;2022-10-16T07:23:35;12.70;99.90
6270;DHT22;3168;51.684;6.954;2022-10-16T07:26:01;12.70;99.90
6270;DHT22;3168;51.684;6.954;2022-10-16T07:28:27;12.70;99.90
6270;DHT22;3168;51.684;6.954;2022-10-16T07:30:53;12.80;99.90
6270;DHT22;3168;51.684;6.954;2022-10-16T07:33:18;12.90;99.90
6270;DHT22;3168;51.684;6.954;2022-10-16T07:35:49;13.00;99.90
6270;DHT22;3168;51.684;6.954;2022-10-16T07:38:14;13.10;99.90
6270;DHT22;3168;51.684;6.954;2022-10-16T07:40:40;13.20;99.90
6270;DHT22;3168;51.684;6.954;2022-10-16T07:43:05;13.30;99.90
6270;DHT22;3168;51.684;6.954;2022-10-16T07:45:31;13.50;99.90
6270;DHT22;3168;51.684;6.954;2022-10-16T07:47:57;13.60;99.90
6270;DHT22;3168;51.684;6.954;2022-10-16T07:50:23;13.70;99.90
6270;DHT22;3168;51.684;6.954;2022-10-16T07:52:49;13.80;99.90
6270;DHT22;3168;51.684;6.954;2022-10-16T07:55:15;14.00;99.90
6270;DHT22;3168;51.684;6.954;2022-10-16T07:57:42;14.00;99.90
6270;DHT22;3168;51.684;6.954;2022-10-16T08:00:09;14.10;99.90
6270;DHT22;3168;51.684;6.954;2022-10-16T08:02:38;14.10;99.90
6270;DHT22;3168;51.684;6.954;2022-10-16T08:05:04;14.20;99.90
6270;DHT22;3168;51.684;6.954;2022-10-16T08:07:30;14.30;99.90
6270;DHT22;3168;51.684;6.954;2022-10-16T08:09:56;14.40;99.90
6270;DHT22;3168;51.684;6.954;2022-10-16T08:12:22;14.50;99.90
6270;DHT22;3168;51.684;6.954;2022-10-16T08:14:48;14.50;99.90
6270;DHT22;3168;51.684;6.954;2022-10-16T08:17:14;14.60;99.90
6270;DHT22;3168;51.684;6.954;2022-10-16T08:19:39;14.60;99.90
6270;DHT22;3168;51.684;6.954;2022-10-16T08:22:05;14.70;99.90
6270;DHT22;3168;51.684;6.954;2022-10-16T08:24:31;14.70;99.90
6270;DHT22;3168;51.684;6.954;2022-10-16T08:26:57;14.70;99.90
6270;DHT22;3168;51.684;6.954;2022-10-16T08:29:23;14.80;99.90
6270;DHT22;3168;51.684;6.954;2022-10-16T08:31:48;14.80;99.90
6270;DHT22;3168;51.684;6.954;2022-10-16T08:34:15;15.00;99.90
6270;DHT22;3168;51.684;6.954;2022-10-16T08:36:41;15.00;99.90
6270;DHT22;3168;51.684;6.954;2022-10-16T08:39:07;15.00;99.90
6270;DHT22;3168;51.684;6.954;2022-10-16T08:41:49;15.00;98.90
6270;DHT22;3168;51.684;6.954;2022-10-16T08:44:22;15.10;97.90
6270;DHT22;3168;51.684;6.954;2022-10-16T08:47:12;15.20;98.00
6270;DHT22;3168;51.684;6.954;2022-10-16T08:49:37;15.10;97.90
6270;DHT22;3168;51.684;6.954;2022-10-16T08:52:03;15.20;97.00
6270;DHT22;3168;51.684;6.954;2022-10-16T08:54:37;15.20;94.90
6270;DHT22;3168;51.684;6.954;2022-10-16T08:57:18;15.30;94.20
6270;DHT22;3168;51.684;6.954;2022-10-16T08:59:43;15.40;94.90
6270;DHT22;3168;51.684;6.954;2022-10-16T09:02:24;15.40;93.10
6270;DHT22;3168;51.684;6.954;2022-10-16T09:06:11;15.50;92.40
6270;DHT22;3168;51.684;6.954;2022-10-16T09:08:23;15.50;91.10
6270;DHT22;3168;51.684;6.954;2022-10-16T09:10:52;15.60;91.90
6270;DHT22;3168;51.684;6.954;2022-10-16T09:13:19;15.60;91.30
6270;DHT22;3168;51.684;6.954;2022-10-16T09:18:41;15.70;90.10
6270;DHT22;3168;51.684;6.954;2022-10-16T09:21:09;15.80;90.30
6270;DHT22;3168;51.684;6.954;2022-10-16T09:23:35;15.70;91.20
6270;DHT22;3168;51.684;6.954;2022-10-16T09:26:00;15.80;91.90
6270;DHT22;3168;51.684;6.954;2022-10-16T09:28:26;15.80;90.10
6270;DHT22;3168;51.684;6.954;2022-10-16T09:30:52;15.90;85.90
6270;DHT22;3168;51.684;6.954;2022-10-16T09:33:19;16.00;88.70
6270;DHT22;3168;51.684;6.954;2022-10-16T09:35:45;16.10;85.70
6270;DHT22;3168;51.684;6.954;2022-10-16T09:38:20;16.20;80.40
6270;DHT22;3168;51.684;6.954;2022-10-16T09:40:37;16.30;80.30
6270;DHT22;3168;51.684;6.954;2022-10-16T09:43:14;16.30;80.10
6270;DHT22;3168;51.684;6.954;2022-10-16T09:45:35;16.40;78.30
6270;DHT22;3168;51.684;6.954;2022-10-16T09:48:01;16.40;74.00
6270;DHT22;3168;51.684;6.954;2022-10-16T09:50:27;16.50;72.60
6270;DHT22;3168;51.684;6.954;2022-10-16T09:53:03;16.50;72.80
6270;DHT22;3168;51.684;6.954;2022-10-16T09:55:28;16.70;72.80
6270;DHT22;3168;51.684;6.954;2022-10-16T09:57:54;16.70;59.50
6270;DHT22;3168;51.684;6.954;2022-10-16T10:00:20;16.70;59.70
6270;DHT22;3168;51.684;6.954;2022-10-16T10:02:46;16.70;62.60
6270;DHT22;3168;51.684;6.954;2022-10-16T10:05:17;16.70;62.50
6270;DHT22;3168;51.684;6.954;2022-10-16T10:07:43;16.70;60.60
6270;DHT22;3168;51.684;6.954;2022-10-16T10:10:19;16.70;62.40
6270;DHT22;3168;51.684;6.954;2022-10-16T10:12:42;16.80;59.20
6270;DHT22;3168;51.684;6.954;2022-10-16T10:15:11;16.80;57.00
6270;DHT22;3168;51.684;6.954;2022-10-16T10:17:47;17.00;55.80
6270;DHT22;3168;51.684;6.954;2022-10-16T10:20:21;17.00;56.00
6270;DHT22;3168;51.684;6.954;2022-10-16T10:22:42;17.20;44.30
6270;DHT22;3168;51.684;6.954;2022-10-16T10:25:18;17.20;39.70
6270;DHT22;3168;51.684;6.954;2022-10-16T10:28:04;17.20;36.80
6270;DHT22;3168;51.684;6.954;2022-10-16T10:31:34;17.20;34.70
6270;DHT22;3168;51.684;6.954;2022-10-16T10:33:18;17.30;39.60
6270;DHT22;3168;51.684;6.954;2022-10-16T10:35:52;17.40;34.90
6270;DHT22;3168;51.684;6.954;2022-10-16T10:38:27;17.50;30.70
6270;DHT22;3168;51.684;6.954;2022-10-16T10:44:01;17.50;27.70
6270;DHT22;3168;51.684;6.954;2022-10-16T10:46:30;17.60;29.50
6270;DHT22;3168;51.684;6.954;2022-10-16T10:49:10;17.70;22.50
6270;DHT22;3168;51.684;6.954;2022-10-16T10:53:00;17.50;18.30
6270;DHT22;3168;51.684;6.954;2022-10-16T10:57:12;17.70;18.50
6270;DHT22;3168;51.684;6.954;2022-10-16T10:59:43;17.70;18.50
6270;DHT22;3168;51.684;6.954;2022-10-16T11:02:23;17.80;12.40
6270;DHT22;3168;51.684;6.954;2022-10-16T11:05:31;17.80;10.40
6270;DHT22;3168;51.684;6.954;2022-10-16T11:07:39;17.90;13.30
6270;DHT22;3168;51.684;6.954;2022-10-16T11:10:07;18.10;9.70
6270;DHT22;3168;51.684;6.954;2022-10-16T11:12:35;18.00;1.00
6270;DHT22;3168;51.684;6.954;2022-10-16T11:15:14;17.80;1.90
6270;DHT22;3168;51.684;6.954;2022-10-16T11:17:39;17.90;10.50
6270;DHT22;3168;51.684;6.954;2022-10-16T11:20:25;18.20;7.10
6270;DHT22;3168;51.684;6.954;2022-10-16T11:22:54;18.30;2.30
6270;DHT22;3168;51.684;6.954;2022-10-16T11:25:23;18.20;2.20
6270;DHT22;3168;51.684;6.954;2022-10-16T11:27:51;18.20;1.00
6270;DHT22;3168;51.684;6.954;2022-10-16T11:30:25;18.10;5.70
6270;DHT22;3168;51.684;6.954;2022-10-16T11:33:24;18.30;1.00
6270;DHT22;3168;51.684;6.954;2022-10-16T11:35:53;18.40;1.60
6270;DHT22;3168;51.684;6.954;2022-10-16T11:40:54;18.40;1.00
6270;DHT22;3168;51.684;6.954;2022-10-16T11:43:22;18.30;1.00
6270;DHT22;3168;51.684;6.954;2022-10-16T11:45:46;18.20;1.00
6270;DHT22;3168;51.684;6.954;2022-10-16T11:48:30;18.30;1.00
6270;DHT22;3168;51.684;6.954;2022-10-16T11:50:57;18.40;1.00
6270;DHT22;3168;51.684;6.954;2022-10-16T11:56:00;18.70;1.00
6270;DHT22;3168;51.684;6.954;2022-10-16T11:58:34;18.90;1.00
6270;DHT22;3168;51.684;6.954;2022-10-16T12:01:06;18.90;1.00
6270;DHT22;3168;51.684;6.954;2022-10-16T12:03:30;19.00;1.00
6270;DHT22;3168;51.684;6.954;2022-10-16T12:06:02;19.10;1.00
6270;DHT22;3168;51.684;6.954;2022-10-16T12:08:25;19.10;1.00
6270;DHT22;3168;51.684;6.954;2022-10-16T12:10:51;19.20;1.00
6270;DHT22;3168;51.684;6.954;2022-10-16T12:13:28;19.30;1.00
6270;DHT22;3168;51.684;6.954;2022-10-16T12:16:21;19.10;1.00
6270;DHT22;3168;51.684;6.954;2022-10-16T12:18:46;19.10;1.00
6270;DHT22;3168;51.684;6.954;2022-10-16T12:21:13;19.10;1.00
6270;DHT22;3168;51.684;6.954;2022-10-16T12:23:54;19.00;1.00
6270;DHT22;3168;51.684;6.954;2022-10-16T12:26:23;18.90;1.00
6270;DHT22;3168;51.684;6.954;2022-10-16T12:28:48;19.10;1.00
6270;DHT22;3168;51.684;6.954;2022-10-16T12:31:14;19.30;1.00
6270;DHT22;3168;51.684;6.954;2022-10-16T12:33:41;19.30;1.00
6270;DHT22;3168;51.684;6.954;2022-10-16T12:36:12;19.40;1.00
6270;DHT22;3168;51.684;6.954;2022-10-16T12:38:44;19.50;1.00
6270;DHT22;3168;51.684;6.954;2022-10-16T12:41:05;19.30;1.00
6270;DHT22;3168;51.684;6.954;2022-10-16T12:43:38;19.10;1.00
6270;DHT22;3168;51.684;6.954;2022-10-16T12:46:20;19.10;1.00
6270;DHT22;3168;51.684;6.954;2022-10-16T12:48:31;19.00;1.00
6270;DHT22;3168;51.684;6.954;2022-10-16T12:50:57;19.00;1.00
6270;DHT22;3168;51.684;6.954;2022-10-16T12:53:23;19.00;1.00
6270;DHT22;3168;51.684;6.954;2022-10-16T12:56:00;19.10;1.00
6270;DHT22;3168;51.684;6.954;2022-10-16T12:58:32;19.10;1.00
6270;DHT22;3168;51.684;6.954;2022-10-16T13:00:56;18.90;1.00
6270;DHT22;3168;51.684;6.954;2022-10-16T13:03:49;18.90;1.00
6270;DHT22;3168;51.684;6.954;2022-10-16T13:06:22;18.90;1.00
6270;DHT22;3168;51.684;6.954;2022-10-16T13:08:58;19.10;1.00
6270;DHT22;3168;51.684;6.954;2022-10-16T13:11:27;19.00;1.00
6270;DHT22;3168;51.684;6.954;2022-10-16T13:14:01;19.10;1.00
6270;DHT22;3168;51.684;6.954;2022-10-16T13:17:05;19.10;1.00
6270;DHT22;3168;51.684;6.954;2022-10-16T13:20:00;19.00;1.00
6270;DHT22;3168;51.684;6.954;2022-10-16T13:22:21;19.00;1.00
6270;DHT22;3168;51.684;6.954;2022-10-16T13:24:58;19.10;1.00
6270;DHT22;3168;51.684;6.954;2022-10-16T13:27:29;19.10;1.00
6270;DHT22;3168;51.684;6.954;2022-10-16T13:29:52;19.00;1.00
6270;DHT22;3168;51.684;6.954;2022-10-16T13:32:18;18.90;1.00
6270;DHT22;3168;51.684;6.954;2022-10-16T13:34:45;18.60;1.00
6270;DHT22;3168;51.684;6.954;2022-10-16T13:37:19;18.90;1.00
6270;DHT22;3168;51.684;6.954;2022-10-16T13:39:45;18.90;1.00
6270;DHT22;3168;51.684;6.954;2022-10-16T13:42:12;18.90;1.00
6270;DHT22;3168;51.684;6.954;2022-10-16T13:44:40;19.00;1.00
6270;DHT22;3168;51.684;6.954;2022-10-16T13:47:05;19.00;1.00
6270;DHT22;3168;51.684;6.954;2022-10-16T13:49:31;18.90;1.00
6270;DHT22;3168;51.684;6.954;2022-10-16T13:51:58;18.70;1.00
6270;DHT22;3168;51.684;6.954;2022-10-16T13:54:24;18.50;1.00
6270;DHT22;3168;51.684;6.954;2022-10-16T13:56:49;18.40;1.00
6270;DHT22;3168;51.684;6.954;2022-10-16T13:59:36;18.30;1.00
6270;DHT22;3168;51.684;6.954;2022-10-16T14:02:05;18.30;1.00
6270;DHT22;3168;51.684;6.954;2022-10-16T14:04:29;18.30;1.00
6270;DHT22;3168;51.684;6.954;2022-10-16T14:06:53;18.40;1.00
6270;DHT22;3168;51.684;6.954;2022-10-16T14:09:22;18.50;1.00
6270;DHT22;3168;51.684;6.954;2022-10-16T14:11:48;18.50;1.00
6270;DHT22;3168;51.684;6.954;2022-10-16T14:14:13;18.30;1.00
6270;DHT22;3168;51.684;6.954;2022-10-16T14:16:40;18.50;1.00
6270;DHT22;3168;51.684;6.954;2022-10-16T14:19:05;18.70;1.00
6270;DHT22;3168;51.684;6.954;2022-10-16T14:21:31;18.90;1.00
6270;DHT22;3168;51.684;6.954;2022-10-16T14:23:57;18.90;1.00
6270;DHT22;3168;51.684;6.954;2022-10-16T14:26:25;18.80;1.00
6270;DHT22;3168;51.684;6.954;2022-10-16T14:29:00;18.80;1.00
6270;DHT22;3168;51.684;6.954;2022-10-16T14:31:34;18.60;1.00
6270;DHT22;3168;51.684;6.954;2022-10-16T14:34:00;18.50;1.00
6270;DHT22;3168;51.684;6.954;2022-10-16T14:36:26;18.40;1.00
6270;DHT22;3168;51.684;6.954;2022-10-16T14:38:59;18.20;1.00
6270;DHT22;3168;51.684;6.954;2022-10-16T14:41:24;18.10;1.00
6270;DHT22;3168;51.684;6.954;2022-10-16T14:43:51;18.10;1.00
6270;DHT22;3168;51.684;6.954;2022-10-16T14:46:21;18.50;1.00
6270;DHT22;3168;51.684;6.954;2022-10-16T14:48:47;18.40;1.00
6270;DHT22;3168;51.684;6.954;2022-10-16T14:51:13;18.60;1.00
6270;DHT22;3168;51.684;6.954;2022-10-16T14:53:39;18.60;1.00
6270;DHT22;3168;51.684;6.954;2022-10-16T14:56:08;18.60;1.00
6270;DHT22;3168;51.684;6.954;2022-10-16T14:58:34;18.70;1.00
6270;DHT22;3168;51.684;6.954;2022-10-16T15:00:59;18.60;1.00
6270;DHT22;3168;51.684;6.954;2022-10-16T15:03:25;18.60;1.00
6270;DHT22;3168;51.684;6.954;2022-10-16T15:05:51;18.50;1.00
6270;DHT22;3168;51.684;6.954;2022-10-16T15:08:17;18.40;1.00
6270;DHT22;3168;51.684;6.954;2022-10-16T15:10:43;18.40;1.00
6270;DHT22;3168;51.684;6.954;2022-10-16T15:13:11;18.40;1.00
6270;DHT22;3168;51.684;6.954;2022-10-16T15:15:36;18.30;1.00
6270;DHT22;3168;51.684;6.954;2022-10-16T15:18:00;18.30;1.00
6270;DHT22;3168;51.684;6.954;2022-10-16T15:20:27;18.20;1.00
6270;DHT22;3168;51.684;6.954;2022-10-16T15:22:52;18.10;1.00
6270;DHT22;3168;51.684;6.954;2022-10-16T15:25:38;18.10;1.00
6270;DHT22;3168;51.684;6.954;2022-10-16T15:28:05;18.00;1.00
6270;DHT22;3168;51.684;6.954;2022-10-16T15:30:31;17.90;1.60
6270;DHT22;3168;51.684;6.954;2022-10-16T15:32:57;17.90;2.90
6270;DHT22;3168;51.684;6.954;2022-10-16T15:35:22;17.90;2.00
6270;DHT22;3168;51.684;6.954;2022-10-16T15:37:48;18.00;1.70
6270;DHT22;3168;51.684;6.954;2022-10-16T15:40:14;17.90;1.50
6270;DHT22;3168;51.684;6.954;2022-10-16T15:42:40;17.80;1.90
6270;DHT22;3168;51.684;6.954;2022-10-16T15:45:06;17.70;3.20
6270;DHT22;3168;51.684;6.954;2022-10-16T15:47:32;17.70;6.70
6270;DHT22;3168;51.684;6.954;2022-10-16T15:49:58;17.70;20.40
6270;DHT22;3168;51.684;6.954;2022-10-16T15:52:24;17.60;20.40
6270;DHT22;3168;51.684;6.954;2022-10-16T15:54:50;17.70;32.80
6270;DHT22;3168;51.684;6.954;2022-10-16T15:57:16;17.60;51.60
6270;DHT22;3168;51.684;6.954;2022-10-16T15:59:41;17.50;55.80
6270;DHT22;3168;51.684;6.954;2022-10-16T16:02:08;17.30;58.80
6270;DHT22;3168;51.684;6.954;2022-10-16T16:04:33;17.10;64.10
6270;DHT22;3168;51.684;6.954;2022-10-16T16:06:59;17.10;70.00
6270;DHT22;3168;51.684;6.954;2022-10-16T16:09:25;17.10;75.40
6270;DHT22;3168;51.684;6.954;2022-10-16T16:11:51;17.00;76.00
6270;DHT22;3168;51.684;6.954;2022-10-16T16:14:18;16.70;77.00
6270;DHT22;3168;51.684;6.954;2022-10-16T16:16:43;16.80;77.10
6270;DHT22;3168;51.684;6.954;2022-10-16T16:19:09;16.70;80.00
6270;DHT22;3168;51.684;6.954;2022-10-16T16:21:35;16.60;80.70
6270;DHT22;3168;51.684;6.954;2022-10-16T16:24:01;16.50;84.10
6270;DHT22;3168;51.684;6.954;2022-10-16T16:26:27;16.50;88.40